createdAt,value
2023-03-27T00:01:08.072Z,7.20
2023-03-27T00:06:16.310Z,7.30
2023-03-27T00:11:19.160Z,7.30
2023-03-27T00:16:22.956Z,7.30
2023-03-27T00:21:25.913Z,7.20
2023-03-27T00:26:30.606Z,7.10
2023-03-27T00:31:32.528Z,7.20
2023-03-27T00:36:34.445Z,7.10
2023-03-27T00:41:36.164Z,7.20
2023-03-27T00:46:44.424Z,7.20
2023-03-27T00:51:46.842Z,7.20
2023-03-27T00:56:50.020Z,7.20
2023-03-27T01:01:52.772Z,7.20
2023-03-27T01:06:56.195Z,7.30
2023-03-27T01:12:30.234Z,7.40
2023-03-27T01:17:56.966Z,7.50
2023-03-27T01:23:36.301Z,7.60
2023-03-27T01:29:07.667Z,7.60
2023-03-27T01:34:18.709Z,7.60
2023-03-27T01:39:44.850Z,7.70
2023-03-27T01:45:10.260Z,7.80
2023-03-27T01:50:34.227Z,7.80
2023-03-27T01:55:40.780Z,7.80
2023-03-27T02:00:51.297Z,7.70
2023-03-27T02:06:10.462Z,7.70
2023-03-27T02:11:12.354Z,7.90
2023-03-27T02:16:19.397Z,7.80
2023-03-27T02:21:23.549Z,7.80
2023-03-27T02:26:25.456Z,7.70
2023-03-27T02:31:35.011Z,7.80
2023-03-27T02:36:55.122Z,7.70
2023-03-27T02:42:25.735Z,7.80
2023-03-27T02:47:47.676Z,7.70
2023-03-27T02:52:57.909Z,7.80
2023-03-27T02:58:12.491Z,7.90
2023-03-27T03:03:28.037Z,8.00
2023-03-27T03:08:30.774Z,8.00
2023-03-27T03:13:32.768Z,8.10
2023-03-27T03:18:34.883Z,8.10
2023-03-27T03:23:36.866Z,8.10
2023-03-27T03:28:38.659Z,8.20
2023-03-27T03:33:40.530Z,7.90
2023-03-27T03:38:42.550Z,7.70
2023-03-27T03:43:44.348Z,7.70
2023-03-27T03:48:46.161Z,7.60
2023-03-27T03:53:47.921Z,7.50
2023-03-27T03:58:49.805Z,7.40
2023-03-27T04:03:51.734Z,6.90
2023-03-27T04:08:53.592Z,6.70
2023-03-27T04:13:55.281Z,6.90
2023-03-27T04:18:57.063Z,6.90
2023-03-27T04:24:02.475Z,7.00
2023-03-27T04:29:10.335Z,7.10
2023-03-27T04:34:12.190Z,6.90
2023-03-27T04:39:17.249Z,6.90
2023-03-27T04:44:18.946Z,6.80
2023-03-27T04:49:20.698Z,6.80
2023-03-27T04:54:23.473Z,6.60
2023-03-27T04:59:25.201Z,6.60
2023-03-27T05:04:27.633Z,6.80
2023-03-27T05:09:29.338Z,6.90
2023-03-27T05:14:31.293Z,6.80
2023-03-27T05:19:32.974Z,6.80
2023-03-27T05:24:34.705Z,6.80
2023-03-27T05:29:47.425Z,6.60
2023-03-27T05:34:54.539Z,6.50
2023-03-27T05:39:56.810Z,6.50
2023-03-27T05:44:58.606Z,6.60
2023-03-27T05:50:00.458Z,6.20
2023-03-27T05:55:02.108Z,6.20
2023-03-27T06:00:10.480Z,6.30
2023-03-27T06:05:14.069Z,6.00
2023-03-27T06:10:20.328Z,6.20
2023-03-27T06:15:22.007Z,6.10
2023-03-27T06:20:24.964Z,6.20
2023-03-27T06:25:27.856Z,6.10
2023-03-27T06:30:30.314Z,6.10
2023-03-27T06:35:33.738Z,6.20
2023-03-27T06:40:36.608Z,6.30
2023-03-27T06:45:44.852Z,6.40
2023-03-27T06:50:48.658Z,6.30
2023-03-27T06:55:51.303Z,6.40
2023-03-27T07:00:53.203Z,6.30
2023-03-27T07:05:55.633Z,6.20
2023-03-27T07:11:10.784Z,6.20
2023-03-27T07:16:14.596Z,6.30
2023-03-27T07:21:16.567Z,6.20
2023-03-27T07:26:18.302Z,6.20
2023-03-27T07:31:36.552Z,6.00
2023-03-27T07:36:41.732Z,6.00
2023-03-27T07:41:43.451Z,6.20
2023-03-27T07:46:46.039Z,6.10
2023-03-27T07:51:47.779Z,5.90
2023-03-27T07:56:49.564Z,6.10
2023-03-27T08:01:51.333Z,5.90
2023-03-27T08:06:54.678Z,5.90
2023-03-27T08:11:56.423Z,6.20
2023-03-27T08:17:12.463Z,6.50
2023-03-27T08:22:18.877Z,6.60
2023-03-27T08:27:20.655Z,6.70
2023-03-27T08:32:22.386Z,6.80
2023-03-27T08:37:24.288Z,7.30
2023-03-27T08:42:35.142Z,7.40
2023-03-27T08:48:05.474Z,7.80
2023-03-27T08:53:19.289Z,7.90
2023-03-27T08:58:22.124Z,7.50
2023-03-27T09:03:41.054Z,7.40
2023-03-27T09:09:07.109Z,8.30
2023-03-27T09:14:33.526Z,8.80
2023-03-27T09:19:55.511Z,9.20
2023-03-27T09:25:03.380Z,9.70
2023-03-27T09:30:11.168Z,9.30
2023-03-27T09:35:19.097Z,9.10
2023-03-27T09:40:33.662Z,9.20
2023-03-27T09:45:39.148Z,8.90
2023-03-27T09:50:47.509Z,8.80
2023-03-27T09:55:55.107Z,9.70
2023-03-27T10:01:20.320Z,10.00
2023-03-27T10:06:43.204Z,8.80
2023-03-27T10:11:45.019Z,9.70
2023-03-27T10:16:47.874Z,11.70
2023-03-27T10:21:50.701Z,11.60
2023-03-27T10:26:53.580Z,12.40
2023-03-27T10:31:57.482Z,11.90
2023-03-27T10:37:01.550Z,11.50
2023-03-27T10:42:08.083Z,11.10
2023-03-27T10:47:31.778Z,12.20
2023-03-27T10:52:45.723Z,11.70
2023-03-27T10:57:53.482Z,10.80
2023-03-27T11:03:00.538Z,12.20
2023-03-27T11:08:34.637Z,13.40
2023-03-27T11:13:40.827Z,12.80
2023-03-27T11:18:54.071Z,13.30
2023-03-27T11:23:58.167Z,14.30
2023-03-27T11:29:09.882Z,15.00
2023-03-27T11:34:38.255Z,15.10
2023-03-27T11:39:53.984Z,14.00
2023-03-27T11:44:56.938Z,13.10
2023-03-27T11:50:15.056Z,11.80
2023-03-27T11:55:32.798Z,13.30
2023-03-27T12:00:57.331Z,14.80
2023-03-27T12:06:21.221Z,14.00
2023-03-27T12:11:25.754Z,15.20
2023-03-27T12:17:00.274Z,16.30
2023-03-27T12:22:24.434Z,16.20
2023-03-27T12:27:38.601Z,16.00
2023-03-27T12:33:16.509Z,16.80
2023-03-27T12:38:24.249Z,16.90
2023-03-27T12:43:33.661Z,16.70
2023-03-27T12:48:51.644Z,16.80
2023-03-27T12:53:56.428Z,16.90
2023-03-27T12:58:58.634Z,17.10
2023-03-27T13:04:03.921Z,17.10
2023-03-27T13:09:23.666Z,17.00
2023-03-27T13:15:03.475Z,16.20
2023-03-27T13:20:39.200Z,14.50
2023-03-27T13:25:58.838Z,13.40
2023-03-27T13:31:02.741Z,12.90
2023-03-27T13:36:20.013Z,12.70
2023-03-27T13:41:43.492Z,12.80
2023-03-27T13:46:52.146Z,13.20
2023-03-27T13:52:12.764Z,13.80
2023-03-27T13:57:25.823Z,14.20
2023-03-27T14:03:05.293Z,14.90
2023-03-27T14:08:34.597Z,15.40
2023-03-27T14:14:02.384Z,14.50
2023-03-27T14:19:31.891Z,14.60
2023-03-27T14:24:43.536Z,13.60
2023-03-27T14:29:46.199Z,13.80
2023-03-27T14:35:04.820Z,14.40
2023-03-27T14:40:22.838Z,14.10
2023-03-27T14:45:27.677Z,12.70
2023-03-27T14:50:31.108Z,11.90
2023-03-27T14:55:34.768Z,12.40
2023-03-27T15:00:39.491Z,12.30
2023-03-27T15:06:00.728Z,11.50
2023-03-27T15:11:03.885Z,10.80
2023-03-27T15:16:07.048Z,10.60
2023-03-27T15:21:20.043Z,10.10
2023-03-27T15:26:26.969Z,9.60
2023-03-27T15:31:30.172Z,9.50
2023-03-27T15:36:35.021Z,9.70
2023-03-27T15:41:40.623Z,9.60
2023-03-27T15:47:01.143Z,9.60
2023-03-27T15:52:30.914Z,10.10
2023-03-27T15:57:32.801Z,10.00
2023-03-27T16:02:35.574Z,10.20
2023-03-27T16:07:42.446Z,9.60
2023-03-27T16:12:47.211Z,9.20
2023-03-27T16:17:50.771Z,9.10
2023-03-27T16:22:52.807Z,9.10
2023-03-27T16:27:55.486Z,9.10
2023-03-27T16:32:57.623Z,9.00
2023-03-27T16:37:59.715Z,9.10
2023-03-27T16:43:01.469Z,9.00
2023-03-27T16:48:03.908Z,8.90
2023-03-27T16:53:05.617Z,8.70
2023-03-27T16:58:07.337Z,8.70
2023-03-27T17:03:09.112Z,8.40
2023-03-27T17:08:13.036Z,8.30
2023-03-27T17:13:14.782Z,8.10
2023-03-27T17:18:16.629Z,7.90
2023-03-27T17:23:19.374Z,7.80
2023-03-27T17:28:21.138Z,7.80
2023-03-27T17:33:23.374Z,7.70
2023-03-27T17:38:25.311Z,7.50
2023-03-27T17:43:27.243Z,7.60
2023-03-27T17:48:29.075Z,7.40
2023-03-27T17:53:31.445Z,7.20
2023-03-27T17:58:34.266Z,7.00
2023-03-27T18:03:36.887Z,6.50
2023-03-27T18:08:38.711Z,6.70
2023-03-27T18:13:40.885Z,6.70
2023-03-27T18:18:42.710Z,6.70
2023-03-27T18:23:46.700Z,6.90
2023-03-27T18:28:48.531Z,7.10
2023-03-27T18:33:50.941Z,7.20
2023-03-27T18:38:52.628Z,6.90
2023-03-27T18:43:54.324Z,6.70
2023-03-27T18:48:57.002Z,6.40
2023-03-27T18:53:58.803Z,6.10
2023-03-27T18:59:01.205Z,6.40
2023-03-27T19:04:06.547Z,6.50
2023-03-27T19:09:08.238Z,6.60
2023-03-27T19:14:10.300Z,6.50
2023-03-27T19:19:12.290Z,6.60
2023-03-27T19:24:14.133Z,6.40
2023-03-27T19:29:16.007Z,6.30
2023-03-27T19:34:17.696Z,6.10
2023-03-27T19:39:19.347Z,6.00
2023-03-27T19:44:21.325Z,6.00
2023-03-27T19:49:23.016Z,6.00
2023-03-27T19:54:24.689Z,6.10
2023-03-27T19:59:30.912Z,6.10
2023-03-27T20:04:33.181Z,6.30
2023-03-27T20:09:35.024Z,6.50
2023-03-27T20:14:36.754Z,6.40
2023-03-27T20:19:38.418Z,6.50
2023-03-27T20:24:40.367Z,6.50
2023-03-27T20:29:42.164Z,6.40
2023-03-27T20:34:46.217Z,6.30
2023-03-27T20:39:47.920Z,5.90
2023-03-27T20:44:55.144Z,6.10
2023-03-27T20:49:59.030Z,6.00
2023-03-27T20:55:01.246Z,6.10
2023-03-27T21:00:11.152Z,6.20
2023-03-27T21:05:12.851Z,6.20
2023-03-27T21:10:14.608Z,6.40
2023-03-27T21:15:16.365Z,6.30
2023-03-27T21:20:18.211Z,6.40
2023-03-27T21:25:21.640Z,6.50
2023-03-27T21:30:24.035Z,6.40
2023-03-27T21:35:47.266Z,6.00
2023-03-27T21:40:49.112Z,6.00
2023-03-27T21:45:51.644Z,6.00
2023-03-27T21:50:57.894Z,5.80
2023-03-27T21:55:59.914Z,5.60
2023-03-27T22:01:02.381Z,5.10
2023-03-27T22:06:12.187Z,5.10
2023-03-27T22:11:14.899Z,4.90
2023-03-27T22:16:17.758Z,4.90
2023-03-27T22:21:22.359Z,4.70
2023-03-27T22:26:31.013Z,4.50
2023-03-27T22:31:32.709Z,4.70
2023-03-27T22:36:34.688Z,4.60
2023-03-27T22:41:36.627Z,4.80
2023-03-27T22:46:39.571Z,5.00
2023-03-27T22:51:41.249Z,5.20
2023-03-27T22:56:43.016Z,5.20
2023-03-27T23:01:44.911Z,5.40
2023-03-27T23:06:46.739Z,5.40
2023-03-27T23:11:48.439Z,5.40
2023-03-27T23:16:50.100Z,5.50
2023-03-27T23:21:51.828Z,5.60
2023-03-27T23:26:53.578Z,5.70
2023-03-27T23:31:55.492Z,5.80
2023-03-27T23:36:57.296Z,5.90
2023-03-27T23:41:58.950Z,6.00
2023-03-27T23:47:00.814Z,6.00
2023-03-27T23:52:02.496Z,6.00
2023-03-27T23:57:04.342Z,6.10
